Terminal Aerodrome Forecast
Issued by NWS

Home | Current Version | Previous Version | Text Only | Print | Product List | Glossary On
Versions: 1 2 3 4 5 6 7 8 9 10 11 12 13 14 15 16 17 18 19 20
000
FTUS42 KFFC 260524
TAFRYY
TAF
KRYY 260524Z 2606/2706 27004KT P6SM -RA SCT060 OVC090
     FM260900 28005KT P6SM -RA SCT035 OVC060
     FM261200 30006KT P6SM SCT050 BKN100
     FM261500 30009KT P6SM SCT060
     FM262100 26007KT P6SM SCT250
     FM270300 24006KT P6SM BKN060
      AMD NOT SKED TIL 261200=

USA.gov is the U.S. government's official web portal to all federal, state and local government web resources and services.